Terminal Aerodrome Forecast
Issued by NWS

Home | Current Version | Previous Version | Graphics & Text | Print | Product List | Glossary On
Versions: 1 2 3 4 5 6 7 8 9 10 11 12 13
000
FTUS43 KGRB 271100
TAFMTW
TAF
KMTW 271132Z 2712/2812 00000KT 1/2SM FG OVC002
     FM271400 VRB03KT 2SM BR SCT002
     FM271500 14005KT P6SM SKC
     FM280100 13003KT 5SM BR SKC
     FM280400 00000KT 1/2SM FG BKN003
      AMD NOT SKED=

USA.gov is the U.S. government's official web portal to all federal, state and local government web resources and services.